createdAt,value
2019-05-23T00:00:28.330Z,100.00
2019-05-23T00:03:26.105Z,100.00
2019-05-23T00:06:34.319Z,100.00
2019-05-23T00:09:25.124Z,100.00
2019-05-23T00:12:15.818Z,100.00
2019-05-23T00:14:56.382Z,100.00
2019-05-23T00:17:32.035Z,100.00
2019-05-23T00:20:08.401Z,100.00
2019-05-23T00:22:44.250Z,100.00
2019-05-23T00:25:18.053Z,100.00
2019-05-23T00:27:53.457Z,100.00
2019-05-23T00:30:37.068Z,100.00
2019-05-23T00:33:11.768Z,100.00
2019-05-23T00:35:44.845Z,100.00
2019-05-23T00:38:18.128Z,100.00
2019-05-23T00:40:53.406Z,100.00
2019-05-23T00:43:28.618Z,100.00
2019-05-23T00:46:01.417Z,100.00
2019-05-23T00:48:35.515Z,100.00
2019-05-23T00:51:07.805Z,100.00
2019-05-23T00:53:40.899Z,100.00
2019-05-23T00:56:14.165Z,100.00
2019-05-23T00:58:47.096Z,100.00
2019-05-23T01:01:20.368Z,100.00
2019-05-23T01:03:55.579Z,100.00
2019-05-23T01:06:29.795Z,100.00
2019-05-23T01:09:05.912Z,100.00
2019-05-23T01:11:40.996Z,100.00
2019-05-23T01:14:13.792Z,100.00
2019-05-23T01:16:46.665Z,100.00
2019-05-23T01:19:20.568Z,100.00
2019-05-23T01:21:59.543Z,100.00
2019-05-23T01:24:43.944Z,100.00
2019-05-23T01:27:17.627Z,100.00
2019-05-23T01:29:51.799Z,100.00
2019-05-23T01:32:46.057Z,100.00
2019-05-23T01:35:20.164Z,100.00
2019-05-23T01:37:53.665Z,100.00
2019-05-23T01:40:26.447Z,100.00
2019-05-23T01:42:59.230Z,100.00
2019-05-23T01:45:34.125Z,100.00
2019-05-23T01:48:06.744Z,100.00
2019-05-23T01:50:40.850Z,100.00
2019-05-23T01:53:16.806Z,100.00
2019-05-23T01:55:51.240Z,100.00
2019-05-23T01:58:25.441Z,100.00
2019-05-23T02:00:58.519Z,100.00
2019-05-23T02:03:32.541Z,100.00
2019-05-23T02:06:05.529Z,100.00
2019-05-23T02:08:38.622Z,100.00
2019-05-23T02:11:13.138Z,100.00
2019-05-23T02:13:45.807Z,100.00
2019-05-23T02:16:20.346Z,100.00
2019-05-23T02:18:53.427Z,100.00
2019-05-23T02:21:29.301Z,100.00
2019-05-23T02:24:03.594Z,100.00
2019-05-23T02:26:37.814Z,100.00
2019-05-23T02:29:10.995Z,100.00
2019-05-23T02:31:44.332Z,100.00
2019-05-23T02:34:17.673Z,100.00
2019-05-23T02:36:52.120Z,100.00
2019-05-23T02:39:45.270Z,100.00
2019-05-23T02:42:22.072Z,100.00
2019-05-23T02:44:55.636Z,100.00
2019-05-23T02:47:30.885Z,100.00
2019-05-23T02:50:05.764Z,100.00
2019-05-23T02:52:47.418Z,100.00
2019-05-23T02:55:24.362Z,100.00
2019-05-23T02:58:01.192Z,100.00
2019-05-23T03:00:54.688Z,100.00
2019-05-23T03:03:30.890Z,100.00
2019-05-23T03:06:05.040Z,100.00
2019-05-23T03:08:37.678Z,100.00
2019-05-23T03:11:27.696Z,100.00
2019-05-23T03:14:00.456Z,100.00
2019-05-23T03:16:36.259Z,100.00
2019-05-23T03:19:22.913Z,100.00
2019-05-23T03:22:01.737Z,100.00
2019-05-23T03:24:35.960Z,100.00
2019-05-23T03:27:11.023Z,100.00
2019-05-23T03:29:44.680Z,100.00
2019-05-23T03:32:26.276Z,100.00
2019-05-23T03:35:00.491Z,100.00
2019-05-23T03:37:32.726Z,100.00
2019-05-23T03:40:08.899Z,100.00
2019-05-23T03:42:43.138Z,100.00
2019-05-23T03:45:17.759Z,100.00
2019-05-23T03:47:50.339Z,100.00
2019-05-23T03:50:23.966Z,100.00
2019-05-23T03:52:57.742Z,100.00
2019-05-23T03:55:33.211Z,100.00
2019-05-23T03:58:06.585Z,100.00
2019-05-23T04:00:41.715Z,100.00
2019-05-23T04:03:15.318Z,100.00
2019-05-23T04:05:48.762Z,100.00
2019-05-23T04:08:21.905Z,100.00
2019-05-23T04:10:56.231Z,100.00
2019-05-23T04:13:29.004Z,100.00
2019-05-23T04:16:01.282Z,100.00
2019-05-23T04:18:34.466Z,100.00
2019-05-23T04:21:07.552Z,100.00
2019-05-23T04:23:40.384Z,100.00
2019-05-23T04:26:13.349Z,100.00
2019-05-23T04:28:45.996Z,100.00
2019-05-23T04:31:19.190Z,100.00
2019-05-23T04:33:52.387Z,100.00
2019-05-23T04:36:25.159Z,100.00
2019-05-23T04:38:58.351Z,100.00
2019-05-23T04:41:31.140Z,99.89
2019-05-23T04:44:04.333Z,99.47
2019-05-23T04:46:38.239Z,99.62
2019-05-23T04:49:11.770Z,99.37
2019-05-23T04:51:45.842Z,99.48
2019-05-23T04:54:18.984Z,98.93
2019-05-23T04:56:51.926Z,98.70
2019-05-23T04:59:25.931Z,98.44
2019-05-23T05:02:00.558Z,98.69
2019-05-23T05:04:34.159Z,98.30
2019-05-23T05:07:08.216Z,98.25
2019-05-23T05:09:42.079Z,98.34
2019-05-23T05:12:15.103Z,98.16
2019-05-23T05:14:48.150Z,97.75
2019-05-23T05:17:20.376Z,98.22
2019-05-23T05:19:53.508Z,98.05
2019-05-23T05:22:28.034Z,97.74
2019-05-23T05:25:00.923Z,97.01
2019-05-23T05:27:33.714Z,97.05
2019-05-23T05:30:08.731Z,96.85
2019-05-23T05:32:45.287Z,97.10
2019-05-23T05:35:16.687Z,97.07
2019-05-23T05:37:48.882Z,96.95
2019-05-23T05:40:23.538Z,97.16
2019-05-23T05:42:56.846Z,96.62
2019-05-23T05:45:29.625Z,96.32
2019-05-23T05:48:02.443Z,96.33
2019-05-23T05:50:35.097Z,96.28
2019-05-23T05:53:08.269Z,95.60
2019-05-23T05:55:40.925Z,95.60
2019-05-23T05:58:13.523Z,95.27
2019-05-23T06:00:48.185Z,94.94
2019-05-23T06:03:20.920Z,94.64
2019-05-23T06:06:07.229Z,94.65
2019-05-23T06:08:42.367Z,94.02
2019-05-23T06:11:15.969Z,94.43
2019-05-23T06:13:48.660Z,94.14
2019-05-23T06:16:21.730Z,93.66
2019-05-23T06:18:55.242Z,93.90
2019-05-23T06:21:29.453Z,94.31
2019-05-23T06:24:02.650Z,94.10
2019-05-23T06:26:35.622Z,93.71
2019-05-23T06:29:08.371Z,93.21
2019-05-23T06:31:43.954Z,92.89
2019-05-23T06:34:17.144Z,93.34
2019-05-23T06:36:52.860Z,92.86
2019-05-23T06:39:26.287Z,92.69
2019-05-23T06:41:58.972Z,92.77
2019-05-23T06:44:32.430Z,92.53
2019-05-23T06:47:07.100Z,92.35
2019-05-23T06:49:39.772Z,91.83
2019-05-23T06:52:12.911Z,91.63
2019-05-23T06:54:45.376Z,92.24
2019-05-23T06:57:18.626Z,91.73
2019-05-23T06:59:51.410Z,91.43
2019-05-23T07:02:32.247Z,91.62
2019-05-23T07:05:06.086Z,91.70
2019-05-23T07:07:39.995Z,91.67
2019-05-23T07:10:13.097Z,91.46
2019-05-23T07:12:46.787Z,90.99
2019-05-23T07:15:20.036Z,90.59
2019-05-23T07:17:53.068Z,90.42
2019-05-23T07:20:27.073Z,90.27
2019-05-23T07:23:00.802Z,89.76
2019-05-23T07:25:34.997Z,89.18
2019-05-23T07:28:07.676Z,88.48
2019-05-23T07:30:40.135Z,88.13
2019-05-23T07:33:14.681Z,87.61
2019-05-23T07:35:47.999Z,86.78
2019-05-23T07:38:20.856Z,87.39
2019-05-23T07:40:53.485Z,86.57
2019-05-23T07:43:26.617Z,86.62
2019-05-23T07:46:00.110Z,86.98
2019-05-23T07:48:33.304Z,87.49
2019-05-23T07:51:06.043Z,87.22
2019-05-23T07:53:44.213Z,86.96
2019-05-23T07:56:24.758Z,86.68
2019-05-23T07:58:57.542Z,86.28
2019-05-23T08:01:33.400Z,85.78
2019-05-23T08:04:20.514Z,85.75
2019-05-23T08:06:40.590Z,86.37
2019-05-23T08:09:14.560Z,86.80
2019-05-23T08:11:47.285Z,86.58
2019-05-23T08:14:19.961Z,86.22
2019-05-23T08:16:53.914Z,84.91
2019-05-23T08:19:26.652Z,84.23
2019-05-23T08:21:59.236Z,83.87
2019-05-23T08:24:32.828Z,83.78
2019-05-23T08:27:06.949Z,83.85
2019-05-23T08:29:40.753Z,83.75
2019-05-23T08:32:13.423Z,82.92
2019-05-23T08:34:46.122Z,83.54
2019-05-23T08:37:19.205Z,82.88
2019-05-23T08:39:52.198Z,81.88
2019-05-23T08:42:25.890Z,81.94
2019-05-23T08:44:58.896Z,82.12
2019-05-23T08:47:31.655Z,81.46
2019-05-23T08:50:05.868Z,81.37
2019-05-23T08:52:38.096Z,82.08
2019-05-23T08:55:26.688Z,81.43
2019-05-23T08:57:59.834Z,81.29
2019-05-23T09:00:34.510Z,80.78
2019-05-23T09:03:07.392Z,80.31
2019-05-23T09:05:41.758Z,79.43
2019-05-23T09:08:16.988Z,77.94
2019-05-23T09:10:51.768Z,76.89
2019-05-23T09:13:24.555Z,75.66
2019-05-23T09:15:57.959Z,75.38
2019-05-23T09:18:31.866Z,74.91
2019-05-23T09:21:04.743Z,74.54
2019-05-23T09:23:37.110Z,73.46
2019-05-23T09:26:09.405Z,72.99
2019-05-23T09:28:42.269Z,72.28
2019-05-23T09:31:16.389Z,70.38
2019-05-23T09:33:48.958Z,70.04
2019-05-23T09:36:21.840Z,67.53
2019-05-23T09:38:54.539Z,66.82
2019-05-23T09:41:27.200Z,66.68
2019-05-23T09:43:59.975Z,67.64
2019-05-23T09:46:32.814Z,68.02
2019-05-23T09:49:05.661Z,67.37
2019-05-23T09:51:38.735Z,67.17
2019-05-23T09:54:11.868Z,67.77
2019-05-23T09:56:44.819Z,67.30
2019-05-23T09:59:17.674Z,66.81
2019-05-23T10:01:51.121Z,65.69
2019-05-23T10:04:23.992Z,66.60
2019-05-23T10:06:56.764Z,68.53
2019-05-23T10:09:29.486Z,67.26
2019-05-23T10:12:02.321Z,67.34
2019-05-23T10:14:36.362Z,67.34
2019-05-23T10:17:09.416Z,67.80
2019-05-23T10:19:42.304Z,68.12
2019-05-23T10:22:15.287Z,67.62
2019-05-23T10:24:47.874Z,67.31
2019-05-23T10:27:21.076Z,67.36
2019-05-23T10:29:53.795Z,66.73
2019-05-23T10:32:27.644Z,65.20
2019-05-23T10:35:00.219Z,65.55
2019-05-23T10:37:32.899Z,65.01
2019-05-23T10:40:06.607Z,65.73
2019-05-23T10:42:41.849Z,65.75
2019-05-23T10:45:15.657Z,64.34
2019-05-23T10:47:48.740Z,63.56
2019-05-23T10:50:22.134Z,64.03
2019-05-23T10:52:54.811Z,62.30
2019-05-23T10:55:27.415Z,63.27
2019-05-23T10:58:00.114Z,61.90
2019-05-23T11:00:33.462Z,61.00
2019-05-23T11:03:07.096Z,58.60
2019-05-23T11:05:39.950Z,59.58
2019-05-23T11:08:13.332Z,59.64
2019-05-23T11:10:47.009Z,58.31
2019-05-23T11:13:20.249Z,60.13
2019-05-23T11:15:53.951Z,59.96
2019-05-23T11:18:26.632Z,60.25
2019-05-23T11:20:59.205Z,58.75
2019-05-23T11:23:48.775Z,59.44
2019-05-23T11:26:21.669Z,58.88
2019-05-23T11:28:54.443Z,59.30
2019-05-23T11:31:27.644Z,59.76
2019-05-23T11:34:00.305Z,58.89
2019-05-23T11:36:36.159Z,59.07
2019-05-23T11:39:09.909Z,59.20
2019-05-23T11:41:42.649Z,60.44
2019-05-23T11:44:15.330Z,59.51
2019-05-23T11:46:48.311Z,58.91
2019-05-23T11:49:21.510Z,59.35
2019-05-23T11:51:54.180Z,59.18
2019-05-23T11:54:27.784Z,59.71
2019-05-23T11:57:01.076Z,58.61
2019-05-23T11:59:33.350Z,58.19
2019-05-23T12:02:08.289Z,57.08
2019-05-23T12:04:41.163Z,57.16
2019-05-23T12:07:19.384Z,56.00
2019-05-23T12:09:52.052Z,55.36
2019-05-23T12:12:25.149Z,55.57
2019-05-23T12:14:58.738Z,56.20
2019-05-23T12:17:34.986Z,56.03
2019-05-23T12:20:10.655Z,56.69
2019-05-23T12:22:43.616Z,57.16
2019-05-23T12:25:22.790Z,58.52
2019-05-23T12:27:53.461Z,55.84
2019-05-23T12:30:27.164Z,57.25
2019-05-23T12:32:59.791Z,57.22
2019-05-23T12:35:32.461Z,56.99
2019-05-23T12:38:05.656Z,55.82
2019-05-23T12:40:38.336Z,55.16
2019-05-23T12:43:10.918Z,54.08
2019-05-23T12:45:44.253Z,52.13
2019-05-23T12:48:25.696Z,52.27
2019-05-23T12:51:02.528Z,53.02
2019-05-23T12:53:34.876Z,52.22
2019-05-23T12:56:07.732Z,51.79
2019-05-23T12:58:40.407Z,50.43
2019-05-23T13:01:15.863Z,50.99
2019-05-23T13:03:48.531Z,50.45
2019-05-23T13:06:21.306Z,51.13
2019-05-23T13:08:53.982Z,49.60
2019-05-23T13:11:26.665Z,48.87
2019-05-23T13:13:59.337Z,47.96
2019-05-23T13:16:32.841Z,46.89
2019-05-23T13:19:06.340Z,48.59
2019-05-23T13:21:39.225Z,48.55
2019-05-23T13:24:13.444Z,48.39
2019-05-23T13:26:46.531Z,49.61
2019-05-23T13:29:24.978Z,50.06
2019-05-23T13:31:57.827Z,51.24
2019-05-23T13:34:30.401Z,51.79
2019-05-23T13:37:04.457Z,51.63
2019-05-23T13:39:36.899Z,51.42
2019-05-23T13:42:09.562Z,51.13
2019-05-23T13:44:42.652Z,51.01
2019-05-23T13:47:15.440Z,49.39
2019-05-23T13:49:49.343Z,49.23
2019-05-23T13:52:22.023Z,49.01
2019-05-23T13:54:54.629Z,50.32
2019-05-23T13:57:27.538Z,52.24
2019-05-23T14:00:00.163Z,52.03
2019-05-23T14:02:33.354Z,53.18
2019-05-23T14:05:10.527Z,52.67
2019-05-23T14:07:43.243Z,53.48
2019-05-23T14:10:16.244Z,53.14
2019-05-23T14:12:49.392Z,53.46
2019-05-23T14:15:32.423Z,53.96
2019-05-23T14:18:05.183Z,52.56
2019-05-23T14:20:38.583Z,52.60
2019-05-23T14:23:14.092Z,52.05
2019-05-23T14:25:49.702Z,51.40
2019-05-23T14:28:24.006Z,52.16
2019-05-23T14:30:58.224Z,52.71
2019-05-23T14:33:35.408Z,52.65
2019-05-23T14:36:31.717Z,52.60
2019-05-23T14:39:02.060Z,51.34
2019-05-23T14:41:46.628Z,51.61
2019-05-23T14:44:19.917Z,52.49
2019-05-23T14:46:59.964Z,50.85
2019-05-23T14:49:40.321Z,50.48
2019-05-23T14:52:20.147Z,50.43
2019-05-23T14:54:54.689Z,50.60
2019-05-23T14:57:27.529Z,50.27
2019-05-23T15:00:00.162Z,50.18
2019-05-23T15:02:34.885Z,49.07
2019-05-23T15:05:12.265Z,49.72
2019-05-23T15:07:44.843Z,48.29
2019-05-23T15:10:20.188Z,48.54
2019-05-23T15:12:52.624Z,47.18
2019-05-23T15:15:26.365Z,47.54
2019-05-23T15:18:02.619Z,47.92
2019-05-23T15:20:36.845Z,48.60
2019-05-23T15:23:13.925Z,47.73
2019-05-23T15:25:49.473Z,48.41
2019-05-23T15:28:22.151Z,49.36
2019-05-23T15:30:54.837Z,48.81
2019-05-23T15:33:28.094Z,49.48
2019-05-23T15:36:01.030Z,49.60
2019-05-23T15:38:39.191Z,49.74
2019-05-23T15:41:15.777Z,49.74
2019-05-23T15:43:48.986Z,49.59
2019-05-23T15:46:21.656Z,50.54
2019-05-23T15:48:56.013Z,49.88
2019-05-23T15:51:36.263Z,50.22
2019-05-23T15:54:22.403Z,50.21
2019-05-23T15:57:04.263Z,49.90
2019-05-23T15:59:40.907Z,51.74
2019-05-23T16:02:26.980Z,51.72
2019-05-23T16:05:01.599Z,50.63
2019-05-23T16:07:36.035Z,50.87
2019-05-23T16:10:12.101Z,50.33
2019-05-23T16:12:44.773Z,51.53
2019-05-23T16:15:18.779Z,52.57
2019-05-23T16:17:53.319Z,52.10
2019-05-23T16:20:28.206Z,51.13
2019-05-23T16:23:02.668Z,50.41
2019-05-23T16:25:37.642Z,50.73
2019-05-23T16:28:13.816Z,50.18
2019-05-23T16:30:48.114Z,49.38
2019-05-23T16:33:21.837Z,51.19
2019-05-23T16:35:57.446Z,51.47
2019-05-23T16:38:33.724Z,51.68
2019-05-23T16:41:11.047Z,52.90
2019-05-23T16:43:41.704Z,53.90
2019-05-23T16:46:14.594Z,53.41
2019-05-23T16:48:47.477Z,53.29
2019-05-23T16:51:20.156Z,51.72
2019-05-23T16:53:53.559Z,50.82
2019-05-23T16:56:30.615Z,50.10
2019-05-23T16:59:20.213Z,51.37
2019-05-23T17:02:05.965Z,50.91
2019-05-23T17:04:59.454Z,51.14
2019-05-23T17:07:41.183Z,51.00
2019-05-23T17:10:22.024Z,51.30
2019-05-23T17:12:56.382Z,51.37
2019-05-23T17:15:46.392Z,52.27
2019-05-23T17:18:26.678Z,53.46
2019-05-23T17:21:10.523Z,53.33
2019-05-23T17:23:47.713Z,53.41
2019-05-23T17:26:32.263Z,53.12
2019-05-23T17:29:07.218Z,54.25
2019-05-23T17:31:41.611Z,55.74
2019-05-23T17:34:14.193Z,54.02
2019-05-23T17:36:46.898Z,54.64
2019-05-23T17:39:20.889Z,54.86
2019-05-23T17:41:53.862Z,54.60
2019-05-23T17:44:27.065Z,55.99
2019-05-23T17:46:59.343Z,54.38
2019-05-23T17:49:33.494Z,55.53
2019-05-23T17:52:06.436Z,55.21
2019-05-23T17:54:39.006Z,54.83
2019-05-23T17:57:12.396Z,55.45
2019-05-23T17:59:44.975Z,57.02
2019-05-23T18:02:19.198Z,56.37
2019-05-23T18:04:52.185Z,57.23
2019-05-23T18:07:25.581Z,57.73
2019-05-23T18:09:57.903Z,58.99
2019-05-23T18:12:31.140Z,59.95
2019-05-23T18:15:04.123Z,60.31
2019-05-23T18:17:38.442Z,61.75
2019-05-23T18:20:13.463Z,62.00
2019-05-23T18:22:46.225Z,62.88
2019-05-23T18:25:20.374Z,62.79
2019-05-23T18:27:53.666Z,64.10
2019-05-23T18:30:33.517Z,65.42
2019-05-23T18:33:07.470Z,65.99
2019-05-23T18:35:42.027Z,66.59
2019-05-23T18:38:14.721Z,67.26
2019-05-23T18:41:01.720Z,68.62
2019-05-23T18:43:25.456Z,67.15
2019-05-23T18:46:00.135Z,65.44
2019-05-23T18:48:33.538Z,65.55
2019-05-23T18:51:06.890Z,65.30
2019-05-23T18:53:41.271Z,65.36
2019-05-23T18:56:22.283Z,64.54
2019-05-23T18:58:57.156Z,63.60
2019-05-23T19:01:30.441Z,63.24
2019-05-23T19:04:03.178Z,62.00
2019-05-23T19:06:36.717Z,62.04
2019-05-23T19:09:13.006Z,61.83
2019-05-23T19:11:45.666Z,61.26
2019-05-23T19:14:18.379Z,61.56
2019-05-23T19:16:51.436Z,61.60
2019-05-23T19:19:24.382Z,61.55
2019-05-23T19:21:57.566Z,61.48
2019-05-23T19:24:31.888Z,64.37
2019-05-23T19:27:04.871Z,66.39
2019-05-23T19:29:38.272Z,67.47
2019-05-23T19:32:11.775Z,68.62
2019-05-23T19:34:45.202Z,69.38
2019-05-23T19:37:17.525Z,69.93
2019-05-23T19:39:50.327Z,70.09
2019-05-23T19:42:22.907Z,69.30
2019-05-23T19:44:55.589Z,68.92
2019-05-23T19:47:28.766Z,69.34
2019-05-23T19:50:01.449Z,69.78
2019-05-23T19:52:35.667Z,70.88
2019-05-23T19:55:09.679Z,70.49
2019-05-23T19:57:43.175Z,71.69
2019-05-23T20:00:18.105Z,72.15
2019-05-23T20:02:53.199Z,72.69
2019-05-23T20:05:27.653Z,71.55
2019-05-23T20:08:00.361Z,71.15
2019-05-23T20:10:34.341Z,71.00
2019-05-23T20:13:07.601Z,71.82
2019-05-23T20:15:45.059Z,72.20
2019-05-23T20:18:15.319Z,72.81
2019-05-23T20:20:48.032Z,72.34
2019-05-23T20:23:20.610Z,72.28
2019-05-23T20:25:53.643Z,71.46
2019-05-23T20:28:27.602Z,71.93
2019-05-23T20:31:00.712Z,72.57
2019-05-23T20:33:33.588Z,73.73
2019-05-23T20:36:11.956Z,74.22
2019-05-23T20:38:42.521Z,75.17
2019-05-23T20:41:15.204Z,75.42
2019-05-23T20:43:47.419Z,76.20
2019-05-23T20:46:20.356Z,76.62
2019-05-23T20:48:52.945Z,76.50
2019-05-23T20:51:25.719Z,75.89
2019-05-23T20:53:58.398Z,74.80
2019-05-23T20:56:31.803Z,74.65
2019-05-23T20:59:04.984Z,73.82
2019-05-23T21:01:39.301Z,74.42
2019-05-23T21:04:12.281Z,73.88
2019-05-23T21:06:44.666Z,76.79
2019-05-23T21:09:17.333Z,77.97
2019-05-23T21:11:50.055Z,78.84
2019-05-23T21:14:22.690Z,79.58
2019-05-23T21:16:55.480Z,80.04
2019-05-23T21:19:28.156Z,81.01
2019-05-23T21:22:00.839Z,81.05
2019-05-23T21:24:34.848Z,81.77
2019-05-23T21:27:07.723Z,81.93
2019-05-23T21:29:40.615Z,82.17
2019-05-23T21:32:13.596Z,82.33
2019-05-23T21:34:46.173Z,82.96
2019-05-23T21:37:19.984Z,83.22
2019-05-23T21:39:52.657Z,82.56
2019-05-23T21:42:25.644Z,83.16
2019-05-23T21:44:57.911Z,83.77
2019-05-23T21:47:30.209Z,82.44
2019-05-23T21:50:02.848Z,83.77
2019-05-23T21:52:35.548Z,85.22
2019-05-23T21:55:08.638Z,86.70
2019-05-23T21:57:41.318Z,87.16
2019-05-23T22:00:17.078Z,88.36
2019-05-23T22:02:52.045Z,89.16
2019-05-23T22:05:25.388Z,90.54
2019-05-23T22:07:58.167Z,91.56
2019-05-23T22:10:30.847Z,93.25
2019-05-23T22:13:04.870Z,93.40
2019-05-23T22:15:38.880Z,92.78
2019-05-23T22:18:11.563Z,92.42
2019-05-23T22:20:44.123Z,91.96
2019-05-23T22:23:17.218Z,92.02
2019-05-23T22:25:49.440Z,92.72
2019-05-23T22:28:21.733Z,93.05
2019-05-23T22:30:53.961Z,93.16
2019-05-23T22:33:28.244Z,93.49
2019-05-23T22:36:01.543Z,93.83
2019-05-23T22:38:35.539Z,93.92
2019-05-23T22:41:08.217Z,93.44
2019-05-23T22:43:41.009Z,93.12
2019-05-23T22:46:13.733Z,92.94
2019-05-23T22:48:46.519Z,92.90
2019-05-23T22:51:19.446Z,92.27
2019-05-23T22:53:52.337Z,91.15
2019-05-23T22:56:25.014Z,90.23
2019-05-23T22:58:57.650Z,89.69
2019-05-23T23:01:31.711Z,87.77
2019-05-23T23:04:04.388Z,87.10
2019-05-23T23:06:37.364Z,87.26
2019-05-23T23:09:10.260Z,87.11
2019-05-23T23:11:43.143Z,87.14
2019-05-23T23:14:15.914Z,86.71
2019-05-23T23:16:49.314Z,86.61
2019-05-23T23:19:22.305Z,85.61
2019-05-23T23:21:54.733Z,84.85
2019-05-23T23:24:27.453Z,85.05
2019-05-23T23:27:00.131Z,84.92
2019-05-23T23:29:32.932Z,84.86
2019-05-23T23:32:05.681Z,84.90
2019-05-23T23:34:39.814Z,84.17
2019-05-23T23:37:12.793Z,83.86
2019-05-23T23:39:45.806Z,83.62
2019-05-23T23:42:18.562Z,83.20
2019-05-23T23:44:50.321Z,83.02
2019-05-23T23:47:40.204Z,82.94
2019-05-23T23:50:30.001Z,82.94
2019-05-23T23:53:20.485Z,83.32
2019-05-23T23:56:11.385Z,83.23
2019-05-23T23:58:43.146Z,83.49
